createdAt,value
2019-02-14T00:00:54.631Z,15.97
2019-02-14T00:03:24.090Z,16.77
2019-02-14T00:06:12.722Z,14.30
2019-02-14T00:08:42.024Z,11.80
2019-02-14T00:11:11.308Z,17.00
2019-02-14T00:13:40.610Z,17.53
2019-02-14T00:16:09.904Z,15.73
2019-02-14T00:18:39.216Z,16.57
2019-02-14T00:21:08.510Z,61.63
2019-02-14T00:23:37.812Z,77.13
2019-02-14T00:26:07.102Z,37.80
2019-02-14T00:28:36.398Z,19.70
2019-02-14T00:31:05.744Z,14.67
2019-02-14T00:33:35.047Z,11.50
2019-02-14T00:36:04.354Z,13.10
2019-02-14T00:38:33.650Z,13.37
2019-02-14T00:41:02.930Z,13.00
2019-02-14T00:43:32.231Z,13.33
2019-02-14T00:46:01.513Z,11.13
2019-02-14T00:48:30.839Z,12.03
2019-02-14T00:51:00.114Z,21.23
2019-02-14T00:53:29.425Z,12.93
2019-02-14T00:55:58.758Z,12.73
2019-02-14T00:58:28.071Z,11.73
2019-02-14T01:00:57.357Z,12.10
2019-02-14T01:03:26.651Z,12.53
2019-02-14T01:05:55.935Z,11.70
2019-02-14T01:08:25.233Z,14.13
2019-02-14T01:10:54.514Z,18.40
2019-02-14T01:13:24.241Z,15.63
2019-02-14T01:15:53.531Z,17.67
2019-02-14T01:18:22.847Z,15.20
2019-02-14T01:20:52.111Z,12.93
2019-02-14T01:23:21.418Z,11.20
2019-02-14T01:25:50.719Z,26.20
2019-02-14T01:28:20.023Z,12.57
2019-02-14T01:30:49.335Z,15.37
2019-02-14T01:33:18.644Z,13.17
2019-02-14T01:35:47.931Z,9.97
2019-02-14T01:38:17.246Z,9.83
2019-02-14T01:40:46.598Z,13.73
2019-02-14T01:43:15.930Z,14.03
2019-02-14T01:45:46.345Z,11.73
2019-02-14T01:48:16.712Z,11.77
2019-02-14T01:50:48.654Z,12.27
2019-02-14T01:53:17.950Z,14.73
2019-02-14T01:55:47.251Z,12.07
2019-02-14T01:58:16.561Z,11.73
2019-02-14T02:00:45.923Z,15.13
2019-02-14T02:03:15.205Z,10.70
2019-02-14T02:05:50.637Z,14.73
2019-02-14T02:08:15.517Z,10.07
2019-02-14T02:10:45.869Z,14.37
2019-02-14T02:13:15.156Z,14.33
2019-02-14T02:15:44.436Z,12.67
2019-02-14T02:18:13.731Z,12.40
2019-02-14T02:20:43.023Z,13.83
2019-02-14T02:23:12.339Z,12.93
2019-02-14T02:25:41.630Z,12.30
2019-02-14T02:28:10.939Z,15.03
2019-02-14T02:30:40.261Z,15.13
2019-02-14T02:33:09.563Z,12.30
2019-02-14T02:35:38.848Z,11.10
2019-02-14T02:38:08.167Z,13.67
2019-02-14T02:40:37.446Z,16.23
2019-02-14T02:43:06.750Z,12.90
2019-02-14T02:45:36.031Z,15.33
2019-02-14T02:48:05.330Z,17.07
2019-02-14T02:50:34.646Z,14.43
2019-02-14T02:53:04.985Z,11.37
2019-02-14T02:55:34.269Z,12.53
2019-02-14T02:58:03.572Z,9.80
2019-02-14T03:00:32.905Z,17.17
2019-02-14T03:03:02.237Z,11.97
2019-02-14T03:05:31.582Z,16.83
2019-02-14T03:08:00.911Z,13.87
2019-02-14T03:10:30.367Z,11.60
2019-02-14T03:12:59.656Z,11.97
2019-02-14T03:15:28.956Z,10.27
2019-02-14T03:17:58.286Z,14.33
2019-02-14T03:20:27.571Z,20.43
2019-02-14T03:22:56.882Z,13.40
2019-02-14T03:25:26.189Z,15.77
2019-02-14T03:27:55.484Z,16.07
2019-02-14T03:30:24.812Z,14.07
2019-02-14T03:32:54.162Z,11.83
2019-02-14T03:35:23.543Z,15.20
2019-02-14T03:37:52.845Z,21.43
2019-02-14T03:40:22.202Z,15.43
2019-02-14T03:42:51.494Z,15.47
2019-02-14T03:45:20.964Z,14.40
2019-02-14T03:47:50.243Z,13.83
2019-02-14T03:50:19.617Z,13.77
2019-02-14T03:52:48.939Z,11.50
2019-02-14T03:55:18.258Z,13.00
2019-02-14T03:57:47.541Z,10.90
2019-02-14T04:00:17.772Z,12.83
2019-02-14T04:02:47.067Z,10.57
2019-02-14T04:05:17.477Z,11.80
2019-02-14T04:07:46.751Z,10.60
2019-02-14T04:10:16.052Z,16.87
2019-02-14T04:12:45.338Z,9.93
2019-02-14T04:15:16.379Z,11.13
2019-02-14T04:17:45.718Z,21.40
2019-02-14T04:20:15.002Z,14.30
2019-02-14T04:22:44.294Z,12.43
2019-02-14T04:25:14.563Z,12.37
2019-02-14T04:27:43.921Z,15.87
2019-02-14T04:30:14.359Z,15.97
2019-02-14T04:32:44.608Z,13.00
2019-02-14T04:35:13.901Z,15.33
2019-02-14T04:37:44.148Z,15.27
2019-02-14T04:40:13.811Z,16.10
2019-02-14T04:42:43.102Z,15.80
2019-02-14T04:45:13.553Z,19.87
2019-02-14T04:47:43.294Z,17.47
2019-02-14T04:50:12.586Z,15.27
2019-02-14T04:52:41.873Z,15.90
2019-02-14T04:55:11.622Z,15.93
2019-02-14T04:57:40.887Z,17.20
2019-02-14T05:00:12.269Z,17.27
2019-02-14T05:02:41.595Z,12.60
2019-02-14T05:05:11.342Z,15.07
2019-02-14T05:07:40.698Z,12.63
2019-02-14T05:10:13.175Z,16.77
2019-02-14T05:12:42.477Z,15.33
2019-02-14T05:15:12.038Z,12.57
2019-02-14T05:17:41.326Z,12.03
2019-02-14T05:20:11.755Z,14.87
2019-02-14T05:22:41.115Z,12.83
2019-02-14T05:25:10.727Z,14.33
2019-02-14T05:27:40.011Z,14.07
2019-02-14T05:30:12.681Z,15.50
2019-02-14T05:32:41.957Z,14.27
2019-02-14T05:35:11.249Z,15.57
2019-02-14T05:37:40.531Z,14.63
2019-02-14T05:40:11.058Z,18.37
2019-02-14T05:42:41.383Z,17.83
2019-02-14T05:45:14.411Z,16.63
2019-02-14T05:47:43.685Z,14.07
2019-02-14T05:50:15.947Z,15.77
2019-02-14T05:52:45.237Z,13.33
2019-02-14T05:55:14.528Z,21.20
2019-02-14T05:57:43.815Z,15.83
2019-02-14T06:00:15.897Z,15.03
2019-02-14T06:02:45.180Z,14.77
2019-02-14T06:05:14.601Z,12.80
2019-02-14T06:07:44.015Z,14.67
2019-02-14T06:10:15.176Z,14.63
2019-02-14T06:12:44.539Z,14.53
2019-02-14T06:15:14.143Z,13.73
2019-02-14T06:17:43.427Z,13.97
2019-02-14T06:20:13.339Z,15.30
2019-02-14T06:22:42.602Z,16.83
2019-02-14T06:25:13.022Z,12.37
2019-02-14T06:27:42.401Z,19.67
2019-02-14T06:30:15.543Z,17.33
2019-02-14T06:32:44.822Z,14.73
2019-02-14T06:35:14.222Z,14.70
2019-02-14T06:37:43.507Z,12.70
2019-02-14T06:40:15.492Z,16.23
2019-02-14T06:42:44.867Z,17.37
2019-02-14T06:45:15.946Z,15.10
2019-02-14T06:47:45.219Z,13.87
2019-02-14T06:50:14.504Z,16.50
2019-02-14T06:52:43.906Z,13.33
2019-02-14T06:55:13.231Z,26.30
2019-02-14T06:57:42.512Z,16.00
2019-02-14T07:00:24.491Z,14.50
2019-02-14T07:02:53.786Z,54.60
2019-02-14T07:05:23.264Z,145.10
2019-02-14T07:07:52.673Z,162.70
2019-02-14T07:10:21.991Z,59.93
2019-02-14T07:12:51.287Z,115.23
2019-02-14T07:15:20.587Z,117.73
2019-02-14T07:17:49.876Z,60.70
2019-02-14T07:20:19.174Z,37.33
2019-02-14T07:22:48.463Z,22.03
2019-02-14T07:25:17.762Z,25.40
2019-02-14T07:27:47.039Z,24.87
2019-02-14T07:30:21.970Z,19.57
2019-02-14T07:32:51.292Z,25.93
2019-02-14T07:35:20.591Z,21.80
2019-02-14T07:37:49.875Z,17.60
2019-02-14T07:40:19.175Z,17.87
2019-02-14T07:42:48.475Z,16.67
2019-02-14T07:45:29.526Z,20.03
2019-02-14T07:47:58.827Z,19.97
2019-02-14T07:50:47.521Z,22.30
2019-02-14T07:53:16.834Z,17.33
2019-02-14T07:55:46.566Z,23.67
2019-02-14T07:58:15.906Z,17.60
2019-02-14T08:00:45.195Z,17.07
2019-02-14T08:03:14.496Z,19.27
2019-02-14T08:05:43.777Z,16.53
2019-02-14T08:08:13.402Z,17.33
2019-02-14T08:10:43.797Z,16.03
2019-02-14T08:13:13.109Z,21.90
2019-02-14T08:15:42.431Z,21.63
2019-02-14T08:18:11.827Z,20.17
2019-02-14T08:20:41.128Z,22.60
2019-02-14T08:23:10.454Z,18.23
2019-02-14T08:25:39.868Z,21.90
2019-02-14T08:28:09.170Z,20.30
2019-02-14T08:30:41.510Z,17.50
2019-02-14T08:33:10.950Z,18.37
2019-02-14T08:35:40.231Z,20.93
2019-02-14T08:38:09.553Z,20.27
2019-02-14T08:40:38.911Z,21.10
2019-02-14T08:43:08.225Z,21.83
2019-02-14T08:45:37.512Z,19.23
2019-02-14T08:48:06.876Z,19.20
2019-02-14T08:50:36.156Z,21.53
2019-02-14T08:53:05.445Z,18.37
2019-02-14T08:55:34.739Z,18.50
2019-02-14T08:58:04.138Z,22.30
2019-02-14T09:00:33.428Z,28.60
2019-02-14T09:03:02.726Z,22.47
2019-02-14T09:05:32.011Z,26.60
2019-02-14T09:08:01.332Z,22.03
2019-02-14T09:10:30.616Z,18.80
2019-02-14T09:12:59.928Z,21.00
2019-02-14T09:15:29.228Z,20.80
2019-02-14T09:17:58.523Z,21.90
2019-02-14T09:20:27.848Z,16.53
2019-02-14T09:22:58.163Z,18.57
2019-02-14T09:25:27.456Z,20.13
2019-02-14T09:27:56.763Z,18.33
2019-02-14T09:30:26.119Z,18.77
2019-02-14T09:32:58.210Z,19.07
2019-02-14T09:35:27.709Z,18.80
2019-02-14T09:38:03.035Z,23.43
2019-02-14T09:40:27.986Z,21.33
2019-02-14T09:42:57.278Z,21.00
2019-02-14T09:45:26.604Z,20.23
2019-02-14T09:47:55.886Z,19.20
2019-02-14T09:50:25.173Z,20.33
2019-02-14T09:52:55.425Z,25.97
2019-02-14T09:55:24.737Z,24.23
2019-02-14T09:57:54.011Z,20.27
2019-02-14T10:00:23.518Z,21.53
2019-02-14T10:02:52.816Z,23.33
2019-02-14T10:05:22.179Z,18.60
2019-02-14T10:07:51.502Z,20.47
2019-02-14T10:10:22.840Z,23.83
2019-02-14T10:12:52.171Z,18.33
2019-02-14T10:15:21.651Z,19.63
2019-02-14T10:17:50.940Z,17.83
2019-02-14T10:20:20.244Z,16.77
2019-02-14T10:22:49.594Z,14.67
2019-02-14T10:25:18.892Z,13.37
2019-02-14T10:27:48.243Z,13.83
2019-02-14T10:30:19.392Z,13.70
2019-02-14T10:32:50.299Z,13.50
2019-02-14T10:35:19.614Z,12.90
2019-02-14T10:37:48.566Z,15.10
2019-02-14T10:40:17.490Z,11.20
2019-02-14T10:42:46.361Z,15.00
2019-02-14T10:45:18.689Z,12.97
2019-02-14T10:47:48.007Z,11.90
2019-02-14T10:50:18.447Z,11.47
2019-02-14T10:52:47.739Z,13.47
2019-02-14T10:55:17.048Z,12.37
2019-02-14T10:57:46.366Z,11.83
2019-02-14T11:00:24.364Z,14.30
2019-02-14T11:02:53.694Z,12.47
2019-02-14T11:05:23.071Z,11.07
2019-02-14T11:07:52.363Z,11.57
2019-02-14T11:10:21.673Z,12.03
2019-02-14T11:12:51.050Z,11.23
2019-02-14T11:15:24.842Z,12.97
2019-02-14T11:17:54.126Z,14.00
2019-02-14T11:20:23.478Z,12.63
2019-02-14T11:22:52.772Z,11.27
2019-02-14T11:25:30.978Z,11.40
2019-02-14T11:28:00.250Z,13.40
2019-02-14T11:30:29.543Z,11.03
2019-02-14T11:32:58.940Z,11.63
2019-02-14T11:35:28.260Z,11.77
2019-02-14T11:37:57.556Z,10.53
2019-02-14T11:40:26.859Z,10.70
2019-02-14T11:42:56.164Z,10.43
2019-02-14T11:45:26.275Z,9.87
2019-02-14T11:47:55.576Z,13.00
2019-02-14T11:50:24.882Z,11.50
2019-02-14T11:52:54.180Z,12.07
2019-02-14T11:55:23.460Z,11.50
2019-02-14T11:57:52.813Z,11.57
2019-02-14T12:00:26.236Z,17.30
2019-02-14T12:02:56.419Z,12.73
2019-02-14T12:05:25.981Z,14.43
2019-02-14T12:07:55.285Z,17.40
2019-02-14T12:10:24.566Z,14.60
2019-02-14T12:12:53.867Z,14.90
2019-02-14T12:15:23.544Z,10.60
2019-02-14T12:17:53.892Z,14.13
2019-02-14T12:20:23.171Z,11.90
2019-02-14T12:22:52.477Z,10.80
2019-02-14T12:25:31.229Z,11.40
2019-02-14T12:28:00.549Z,11.53
2019-02-14T12:30:49.163Z,11.53
2019-02-14T12:33:18.496Z,11.07
2019-02-14T12:35:47.917Z,14.37
2019-02-14T12:38:17.222Z,11.13
2019-02-14T12:40:46.512Z,11.40
2019-02-14T12:43:15.810Z,12.93
2019-02-14T12:45:45.100Z,10.87
2019-02-14T12:48:14.395Z,36.03
2019-02-14T12:50:43.686Z,12.30
2019-02-14T12:53:12.974Z,12.97
2019-02-14T12:55:42.262Z,14.40
2019-02-14T12:58:11.557Z,12.93
2019-02-14T13:00:40.830Z,14.63
2019-02-14T13:03:10.206Z,12.77
2019-02-14T13:05:45.171Z,11.97
2019-02-14T13:08:14.474Z,12.47
2019-02-14T13:10:43.834Z,9.57
2019-02-14T13:13:13.128Z,12.43
2019-02-14T13:15:42.509Z,10.50
2019-02-14T13:18:11.866Z,11.73
2019-02-14T13:20:41.194Z,10.60
2019-02-14T13:23:10.486Z,13.77
2019-02-14T13:25:39.953Z,12.03
2019-02-14T13:28:09.346Z,11.57
2019-02-14T13:30:38.634Z,11.43
2019-02-14T13:33:07.942Z,13.20
2019-02-14T13:35:37.366Z,10.80
2019-02-14T13:38:06.669Z,9.33
2019-02-14T13:40:35.994Z,12.33
2019-02-14T13:43:05.321Z,11.27
2019-02-14T13:45:34.596Z,16.87
2019-02-14T13:48:03.895Z,21.97
2019-02-14T13:50:33.255Z,10.67
2019-02-14T13:53:02.580Z,14.13
2019-02-14T13:55:31.867Z,12.23
2019-02-14T13:58:01.206Z,9.40
2019-02-14T14:00:30.777Z,12.53
2019-02-14T14:03:01.942Z,19.13
2019-02-14T14:05:32.737Z,13.50
2019-02-14T14:08:02.043Z,10.90
2019-02-14T14:10:31.345Z,12.73
2019-02-14T14:13:00.619Z,9.80
2019-02-14T14:15:29.998Z,10.30
2019-02-14T14:17:59.308Z,11.57
2019-02-14T14:20:29.710Z,11.97
2019-02-14T14:22:59.032Z,9.93
2019-02-14T14:25:28.332Z,8.90
2019-02-14T14:27:57.716Z,8.80
2019-02-14T14:30:27.233Z,10.27
2019-02-14T14:32:56.496Z,9.53
2019-02-14T14:35:26.172Z,15.13
2019-02-14T14:37:55.541Z,13.90
2019-02-14T14:40:24.851Z,13.93
2019-02-14T14:43:04.577Z,13.63
2019-02-14T14:45:35.924Z,10.60
2019-02-14T14:48:05.245Z,11.13
2019-02-14T14:50:34.581Z,12.87
2019-02-14T14:53:03.935Z,13.63
2019-02-14T14:55:33.223Z,12.03
2019-02-14T14:58:02.506Z,11.77
2019-02-14T15:00:31.821Z,12.77
2019-02-14T15:03:01.154Z,13.07
2019-02-14T15:05:30.491Z,12.97
2019-02-14T15:07:59.830Z,13.87
2019-02-14T15:10:29.123Z,11.23
2019-02-14T15:12:58.426Z,12.77
2019-02-14T15:15:27.734Z,14.47
2019-02-14T15:17:57.117Z,16.73
2019-02-14T15:20:26.429Z,14.30
2019-02-14T15:22:56.413Z,11.00
2019-02-14T15:25:25.997Z,11.97
2019-02-14T15:27:55.271Z,13.30
2019-02-14T15:30:24.574Z,10.10
2019-02-14T15:32:53.863Z,12.90
2019-02-14T15:35:23.167Z,9.97
2019-02-14T15:37:52.521Z,12.20
2019-02-14T15:40:21.787Z,11.80
2019-02-14T15:42:51.087Z,11.97
2019-02-14T15:45:22.406Z,11.17
2019-02-14T15:47:51.747Z,11.70
2019-02-14T15:50:22.012Z,12.80
2019-02-14T15:52:52.307Z,32.63
2019-02-14T15:55:24.183Z,12.80
2019-02-14T15:57:53.301Z,19.03
2019-02-14T16:00:22.838Z,15.47
2019-02-14T16:02:52.618Z,8.20
2019-02-14T16:05:22.087Z,7.33
2019-02-14T16:07:53.576Z,6.47
2019-02-14T16:10:22.882Z,8.27
2019-02-14T16:12:52.174Z,8.60
2019-02-14T16:15:21.533Z,9.17
2019-02-14T16:17:50.839Z,9.27
2019-02-14T16:20:20.390Z,9.83
2019-02-14T16:22:49.811Z,10.90
2019-02-14T16:25:19.101Z,12.13
2019-02-14T16:27:50.303Z,10.53
2019-02-14T16:30:19.359Z,11.27
2019-02-14T16:32:48.654Z,9.57
2019-02-14T16:35:18.087Z,9.40
2019-02-14T16:37:48.742Z,14.87
2019-02-14T16:40:27.252Z,17.57
2019-02-14T16:42:49.647Z,49.43
2019-02-14T16:45:18.930Z,31.30
2019-02-14T16:47:48.229Z,10.80
2019-02-14T16:50:17.522Z,14.77
2019-02-14T16:52:56.482Z,14.43
2019-02-14T16:55:25.774Z,12.93
2019-02-14T16:57:55.440Z,11.77
2019-02-14T17:00:24.830Z,22.40
2019-02-14T17:02:54.230Z,25.83
2019-02-14T17:05:23.599Z,12.80
2019-02-14T17:07:52.948Z,11.17
2019-02-14T17:10:36.571Z,9.40
2019-02-14T17:13:00.877Z,11.37
2019-02-14T17:15:31.462Z,18.00
2019-02-14T17:18:00.765Z,17.57
2019-02-14T17:20:30.042Z,16.50
2019-02-14T17:22:59.341Z,12.30
2019-02-14T17:25:28.708Z,9.90
2019-02-14T17:27:58.057Z,8.60
2019-02-14T17:30:27.354Z,11.20
2019-02-14T17:32:56.803Z,18.30
2019-02-14T17:35:26.154Z,16.83
2019-02-14T17:37:55.483Z,15.67
2019-02-14T17:40:24.861Z,12.00
2019-02-14T17:42:54.158Z,25.17
2019-02-14T17:45:42.774Z,9.37
2019-02-14T17:48:12.067Z,11.73
2019-02-14T17:50:41.413Z,8.87
2019-02-14T17:53:10.699Z,10.67
2019-02-14T17:55:40.023Z,6.00
2019-02-14T17:58:09.350Z,8.47
2019-02-14T18:00:40.273Z,10.10
2019-02-14T18:03:09.663Z,9.47
2019-02-14T18:05:38.943Z,9.07
2019-02-14T18:08:08.240Z,8.17
2019-02-14T18:10:37.695Z,9.43
2019-02-14T18:13:07.107Z,11.10
2019-02-14T18:15:36.553Z,11.57
2019-02-14T18:18:05.851Z,13.13
2019-02-14T18:20:35.382Z,9.13
2019-02-14T18:23:04.738Z,7.53
2019-02-14T18:25:34.034Z,12.30
2019-02-14T18:28:03.405Z,8.20
2019-02-14T18:30:32.695Z,11.13
2019-02-14T18:33:02.011Z,12.37
2019-02-14T18:35:31.388Z,12.17
2019-02-14T18:38:00.674Z,13.23
2019-02-14T18:40:29.983Z,12.13
2019-02-14T18:42:59.267Z,11.20
2019-02-14T18:45:28.583Z,10.47
2019-02-14T18:47:57.911Z,7.93
2019-02-14T18:50:27.229Z,8.83
2019-02-14T18:52:56.507Z,11.23
2019-02-14T18:55:25.798Z,9.20
2019-02-14T18:57:55.095Z,8.27
2019-02-14T19:00:24.395Z,15.77
2019-02-14T19:02:53.714Z,11.13
2019-02-14T19:05:23.133Z,10.87
2019-02-14T19:07:52.522Z,10.67
2019-02-14T19:10:21.908Z,10.30
2019-02-14T19:12:51.199Z,24.30
2019-02-14T19:15:20.587Z,17.10
2019-02-14T19:17:49.877Z,13.57
2019-02-14T19:20:20.265Z,21.67
2019-02-14T19:22:49.563Z,13.00
2019-02-14T19:25:19.751Z,13.13
2019-02-14T19:27:49.039Z,14.00
2019-02-14T19:30:18.333Z,14.73
2019-02-14T19:32:48.585Z,20.03
2019-02-14T19:35:23.038Z,16.37
2019-02-14T19:37:48.924Z,16.70
2019-02-14T19:40:18.223Z,21.67
2019-02-14T19:42:47.500Z,29.87
2019-02-14T19:45:16.846Z,25.33
2019-02-14T19:47:46.354Z,23.53
2019-02-14T19:50:15.691Z,14.07
2019-02-14T19:52:44.965Z,13.43
2019-02-14T19:55:14.370Z,15.33
2019-02-14T19:57:43.647Z,19.97
2019-02-14T20:00:16.195Z,16.83
2019-02-14T20:02:45.750Z,18.10
2019-02-14T20:05:15.074Z,18.10
2019-02-14T20:07:44.395Z,16.97
2019-02-14T20:10:14.369Z,18.50
2019-02-14T20:12:43.661Z,15.57
2019-02-14T20:15:18.656Z,17.07
2019-02-14T20:17:48.335Z,127.43
2019-02-14T20:20:17.642Z,229.47
2019-02-14T20:22:46.962Z,58.37
2019-02-14T20:25:25.123Z,26.03
2019-02-14T20:27:54.412Z,19.20
2019-02-14T20:30:23.698Z,17.40
2019-02-14T20:32:53.038Z,16.97
2019-02-14T20:35:22.343Z,21.30
2019-02-14T20:37:51.679Z,28.07
2019-02-14T20:40:20.995Z,23.00
2019-02-14T20:42:50.499Z,35.87
2019-02-14T20:45:20.790Z,27.53
2019-02-14T20:47:51.190Z,26.07
2019-02-14T20:50:20.463Z,27.77
2019-02-14T20:52:49.782Z,26.07
2019-02-14T20:55:24.441Z,22.77
2019-02-14T20:57:53.736Z,27.27
2019-02-14T21:00:30.435Z,36.67
2019-02-14T21:02:59.755Z,39.43
2019-02-14T21:05:29.131Z,30.87
2019-02-14T21:07:58.558Z,39.77
2019-02-14T21:10:28.819Z,38.20
2019-02-14T21:12:58.294Z,28.60
2019-02-14T21:15:27.578Z,29.00
2019-02-14T21:17:56.886Z,26.20
2019-02-14T21:20:26.186Z,39.60
2019-02-14T21:22:55.565Z,24.37
2019-02-14T21:25:24.843Z,21.20
2019-02-14T21:27:54.142Z,22.87
2019-02-14T21:30:23.448Z,16.70
2019-02-14T21:32:52.883Z,20.47
2019-02-14T21:35:22.253Z,15.63
2019-02-14T21:37:51.598Z,19.97
2019-02-14T21:40:20.922Z,18.00
2019-02-14T21:42:50.323Z,18.17
2019-02-14T21:45:19.664Z,17.67
2019-02-14T21:47:48.953Z,18.83
2019-02-14T21:50:18.246Z,15.20
2019-02-14T21:52:48.585Z,23.40
2019-02-14T21:55:19.131Z,16.77
2019-02-14T21:57:48.411Z,18.80
2019-02-14T22:00:20.816Z,22.50
2019-02-14T22:02:50.442Z,21.37
2019-02-14T22:05:24.702Z,19.40
2019-02-14T22:07:50.784Z,19.27
2019-02-14T22:10:20.118Z,19.43
2019-02-14T22:12:49.423Z,21.37
2019-02-14T22:15:24.851Z,21.47
2019-02-14T22:17:54.149Z,18.43
2019-02-14T22:20:23.544Z,18.27
2019-02-14T22:22:52.833Z,18.23
2019-02-14T22:25:22.134Z,16.97
2019-02-14T22:27:51.414Z,19.43
2019-02-14T22:30:20.702Z,19.33
2019-02-14T22:32:49.979Z,17.50
2019-02-14T22:35:19.286Z,18.93
2019-02-14T22:37:48.627Z,20.00
2019-02-14T22:40:17.952Z,20.87
2019-02-14T22:42:47.923Z,20.17
2019-02-14T22:45:17.310Z,19.80
2019-02-14T22:47:46.611Z,22.73
2019-02-14T22:50:15.909Z,27.07
2019-02-14T22:52:45.188Z,19.97
2019-02-14T22:55:14.546Z,21.90
2019-02-14T22:57:43.864Z,20.03
2019-02-14T23:00:40.431Z,21.83
2019-02-14T23:03:10.864Z,19.83
2019-02-14T23:05:59.499Z,23.73
2019-02-14T23:08:28.793Z,21.37
2019-02-14T23:10:58.154Z,21.20
2019-02-14T23:13:27.442Z,24.33
2019-02-14T23:15:56.729Z,19.73
2019-02-14T23:18:26.378Z,19.93
2019-02-14T23:20:55.752Z,24.83
2019-02-14T23:23:25.030Z,24.00
2019-02-14T23:25:54.399Z,19.57
2019-02-14T23:28:23.760Z,22.53
2019-02-14T23:30:53.038Z,21.83
2019-02-14T23:33:22.329Z,20.50
2019-02-14T23:35:52.651Z,22.53
2019-02-14T23:38:21.934Z,19.93
2019-02-14T23:40:51.237Z,18.80
2019-02-14T23:43:20.529Z,20.10
2019-02-14T23:45:49.818Z,20.30
2019-02-14T23:48:19.104Z,20.93
2019-02-14T23:50:48.482Z,23.20
2019-02-14T23:53:17.778Z,24.80
2019-02-14T23:55:47.057Z,21.27
2019-02-14T23:58:16.360Z,26.43
